createdAt,value
2019-05-13T00:00:15.139Z,5.47
2019-05-13T00:02:44.023Z,7.20
2019-05-13T00:05:14.629Z,6.33
2019-05-13T00:07:44.021Z,3.53
2019-05-13T00:10:14.928Z,7.10
2019-05-13T00:12:44.754Z,6.17
2019-05-13T00:15:15.579Z,6.23
2019-05-13T00:17:44.772Z,4.70
2019-05-13T00:20:14.311Z,5.20
2019-05-13T00:22:44.735Z,7.70
2019-05-13T00:25:14.504Z,3.73
2019-05-13T00:27:44.500Z,6.23
2019-05-13T00:30:14.564Z,6.20
2019-05-13T00:32:44.573Z,7.03
2019-05-13T00:35:14.168Z,5.03
2019-05-13T00:37:44.252Z,3.73
2019-05-13T00:40:14.371Z,4.40
2019-05-13T00:42:44.077Z,6.07
2019-05-13T00:45:14.558Z,4.93
2019-05-13T00:47:43.862Z,6.23
2019-05-13T00:50:14.228Z,6.80
2019-05-13T00:52:44.934Z,7.67
2019-05-13T00:55:14.861Z,8.83
2019-05-13T00:57:44.079Z,9.33
2019-05-13T01:00:14.025Z,4.50
2019-05-13T01:02:44.590Z,12.60
2019-05-13T01:05:14.612Z,7.27
2019-05-13T01:07:44.327Z,7.77
2019-05-13T01:10:13.822Z,9.53
2019-05-13T01:12:44.012Z,6.57
2019-05-13T01:15:13.458Z,8.57
2019-05-13T01:17:44.729Z,5.93
2019-05-13T01:20:14.459Z,8.37
2019-05-13T01:22:44.097Z,9.83
2019-05-13T01:25:14.521Z,7.83
2019-05-13T01:27:44.445Z,6.70
2019-05-13T01:30:13.707Z,4.27
2019-05-13T01:32:44.642Z,7.90
2019-05-13T01:35:14.837Z,6.57
2019-05-13T01:37:46.211Z,6.07
2019-05-13T01:40:14.720Z,7.17
2019-05-13T01:42:44.470Z,8.60
2019-05-13T01:45:14.145Z,9.37
2019-05-13T01:47:44.184Z,5.80
2019-05-13T01:50:14.397Z,5.83
2019-05-13T01:52:44.541Z,6.13
2019-05-13T01:55:14.481Z,8.23
2019-05-13T01:57:44.444Z,6.97
2019-05-13T02:00:14.418Z,5.57
2019-05-13T02:02:44.535Z,9.67
2019-05-13T02:05:14.243Z,6.87
2019-05-13T02:07:56.545Z,8.03
2019-05-13T02:10:15.787Z,7.77
2019-05-13T02:12:45.010Z,5.00
2019-05-13T02:15:14.834Z,9.00
2019-05-13T02:17:44.694Z,7.10
2019-05-13T02:20:14.964Z,12.40
2019-05-13T02:22:44.552Z,7.53
2019-05-13T02:25:13.991Z,10.40
2019-05-13T02:27:43.962Z,8.33
2019-05-13T02:30:16.183Z,5.77
2019-05-13T02:32:43.451Z,6.60
2019-05-13T02:35:13.992Z,6.83
2019-05-13T02:37:43.832Z,9.13
2019-05-13T02:40:13.880Z,6.27
2019-05-13T02:42:43.631Z,6.73
2019-05-13T02:45:13.376Z,11.40
2019-05-13T02:47:44.331Z,7.53
2019-05-13T02:50:13.201Z,14.57
2019-05-13T02:52:44.323Z,8.97
2019-05-13T02:55:12.627Z,6.00
2019-05-13T02:57:43.599Z,5.10
2019-05-13T03:00:13.215Z,9.47
2019-05-13T03:02:43.817Z,6.53
2019-05-13T03:05:13.981Z,6.30
2019-05-13T03:07:43.126Z,12.50
2019-05-13T03:10:13.566Z,9.57
2019-05-13T03:12:43.034Z,7.60
2019-05-13T03:15:13.228Z,9.47
2019-05-13T03:17:52.886Z,3.57
2019-05-13T03:20:22.996Z,10.53
2019-05-13T03:22:52.571Z,5.23
2019-05-13T03:25:22.672Z,8.57
2019-05-13T03:27:53.975Z,10.20
2019-05-13T03:30:25.197Z,8.93
2019-05-13T03:33:00.531Z,9.37
2019-05-13T03:35:26.843Z,8.73
2019-05-13T03:37:53.370Z,9.80
2019-05-13T03:40:23.270Z,8.93
2019-05-13T03:42:53.641Z,10.47
2019-05-13T03:45:24.630Z,7.00
2019-05-13T03:47:55.763Z,10.37
2019-05-13T03:50:24.286Z,9.33
2019-05-13T03:52:52.967Z,8.93
2019-05-13T03:55:23.434Z,8.53
2019-05-13T03:57:53.350Z,8.80
2019-05-13T04:00:23.650Z,12.93
2019-05-13T04:02:53.159Z,8.93
2019-05-13T04:05:23.265Z,7.87
2019-05-13T04:07:52.643Z,6.90
2019-05-13T04:10:23.029Z,9.50
2019-05-13T04:12:53.001Z,7.97
2019-05-13T04:15:23.740Z,8.40
2019-05-13T04:17:53.272Z,4.57
2019-05-13T04:20:23.229Z,8.40
2019-05-13T04:22:53.363Z,10.83
2019-05-13T04:25:23.154Z,6.50
2019-05-13T04:27:53.528Z,11.07
2019-05-13T04:30:22.785Z,10.27
2019-05-13T04:32:53.282Z,7.27
2019-05-13T04:35:23.350Z,9.20
2019-05-13T04:37:52.936Z,7.10
2019-05-13T04:40:23.015Z,7.80
2019-05-13T04:42:53.540Z,10.40
2019-05-13T04:45:24.038Z,7.53
2019-05-13T04:47:53.067Z,16.63
2019-05-13T04:50:22.725Z,10.20
2019-05-13T04:52:53.051Z,7.20
2019-05-13T04:55:22.973Z,13.77
2019-05-13T04:57:53.266Z,9.40
2019-05-13T05:00:50.042Z,10.63
2019-05-13T05:03:32.054Z,11.63
2019-05-13T05:05:57.168Z,12.00
2019-05-13T05:08:52.766Z,8.53
2019-05-13T05:11:43.866Z,9.90
2019-05-13T05:14:27.280Z,15.37
2019-05-13T05:17:32.867Z,8.93
2019-05-13T05:20:25.109Z,12.33
2019-05-13T05:23:08.116Z,10.20
2019-05-13T05:25:41.625Z,9.17
2019-05-13T05:28:15.409Z,13.10
2019-05-13T05:30:58.721Z,9.17
2019-05-13T05:33:58.960Z,11.67
2019-05-13T05:36:48.587Z,12.10
2019-05-13T05:39:22.421Z,13.03
2019-05-13T05:41:53.521Z,13.37
2019-05-13T05:44:25.266Z,12.17
2019-05-13T05:46:56.491Z,12.23
2019-05-13T05:49:26.996Z,11.53
2019-05-13T05:52:07.094Z,5.93
2019-05-13T05:54:38.266Z,12.27
2019-05-13T05:57:08.893Z,11.73
2019-05-13T05:59:38.896Z,11.77
2019-05-13T06:02:08.612Z,9.63
2019-05-13T06:04:37.423Z,8.30
2019-05-13T06:07:06.242Z,11.17
2019-05-13T06:09:34.731Z,11.50
2019-05-13T06:12:03.237Z,11.80
2019-05-13T06:14:32.834Z,9.07
2019-05-13T06:17:02.655Z,12.90
2019-05-13T06:19:32.260Z,15.20
2019-05-13T06:22:02.344Z,14.40
2019-05-13T06:24:31.515Z,13.37
2019-05-13T06:27:01.718Z,8.30
2019-05-13T06:29:31.626Z,8.30
2019-05-13T06:32:15.295Z,12.23
2019-05-13T06:34:32.609Z,15.87
2019-05-13T06:37:02.174Z,11.70
2019-05-13T06:39:31.730Z,7.60
2019-05-13T06:42:02.729Z,13.07
2019-05-13T06:44:31.590Z,12.47
2019-05-13T06:47:02.652Z,5.57
2019-05-13T06:49:32.205Z,10.03
2019-05-13T06:52:01.726Z,7.80
2019-05-13T06:54:33.155Z,7.77
2019-05-13T06:57:04.313Z,8.77
2019-05-13T06:59:31.751Z,7.92
2019-05-13T07:02:02.034Z,7.90
2019-05-13T07:04:32.631Z,8.65
2019-05-13T07:07:12.375Z,8.38
2019-05-13T07:09:32.270Z,7.42
2019-05-13T07:12:02.848Z,7.00
2019-05-13T07:14:32.408Z,7.03
2019-05-13T07:17:02.081Z,8.08
2019-05-13T07:19:32.283Z,5.40
2019-05-13T07:22:03.182Z,7.55
2019-05-13T07:24:32.477Z,10.18
2019-05-13T07:27:01.777Z,7.42
2019-05-13T07:29:32.539Z,11.10
2019-05-13T07:32:01.836Z,6.35
2019-05-13T07:34:33.646Z,6.28
2019-05-13T07:37:02.366Z,7.53
2019-05-13T07:39:32.940Z,7.87
2019-05-13T07:42:05.267Z,5.58
2019-05-13T07:44:32.552Z,6.45
2019-05-13T07:47:03.421Z,7.17
2019-05-13T07:49:31.882Z,7.35
2019-05-13T07:52:01.646Z,5.40
2019-05-13T07:54:32.888Z,5.22
2019-05-13T07:57:02.056Z,6.87
2019-05-13T07:59:31.936Z,6.03
2019-05-13T08:02:02.055Z,5.30
2019-05-13T08:04:33.490Z,5.55
2019-05-13T08:07:02.210Z,5.30
2019-05-13T08:09:31.876Z,6.15
2019-05-13T08:12:09.860Z,7.65
2019-05-13T08:14:32.685Z,8.73
2019-05-13T08:17:02.626Z,8.90
2019-05-13T08:19:32.576Z,6.60
2019-05-13T08:22:02.132Z,9.45
2019-05-13T08:24:31.554Z,6.90
2019-05-13T08:27:02.227Z,5.28
2019-05-13T08:29:32.860Z,6.45
2019-05-13T08:32:02.833Z,8.40
2019-05-13T08:34:32.871Z,5.47
2019-05-13T08:37:02.801Z,9.43
2019-05-13T08:39:33.461Z,7.62
2019-05-13T08:42:12.948Z,8.50
2019-05-13T08:44:32.295Z,6.12
2019-05-13T08:47:03.111Z,5.20
2019-05-13T08:49:32.509Z,4.30
2019-05-13T08:52:01.841Z,4.72
2019-05-13T08:54:32.844Z,5.12
2019-05-13T08:57:02.820Z,5.25
2019-05-13T08:59:32.134Z,5.95
2019-05-13T09:04:31.725Z,6.50
2019-05-13T09:07:02.193Z,7.95
2019-05-13T09:09:31.597Z,6.22
2019-05-13T09:12:02.602Z,3.58
2019-05-13T09:14:32.409Z,5.33
2019-05-13T09:17:02.074Z,5.17
2019-05-13T09:19:32.144Z,4.12
2019-05-13T09:22:02.976Z,8.53
2019-05-13T09:24:37.237Z,7.12
2019-05-13T09:27:02.089Z,4.72
2019-05-13T09:29:32.232Z,4.47
2019-05-13T09:32:03.700Z,4.87
2019-05-13T09:34:32.748Z,4.70
2019-05-13T09:37:02.716Z,5.33
2019-05-13T09:39:32.419Z,4.78
2019-05-13T09:42:02.607Z,5.05
2019-05-13T09:44:32.850Z,6.22
2019-05-13T09:47:02.665Z,6.80
2019-05-13T09:49:32.775Z,7.55
2019-05-13T09:52:02.051Z,5.80
2019-05-13T09:54:32.562Z,5.08
2019-05-13T09:57:01.912Z,4.08
2019-05-13T09:59:31.857Z,8.50
2019-05-13T10:02:02.848Z,9.83
2019-05-13T10:07:02.809Z,8.73
2019-05-13T10:09:32.623Z,5.13
2019-05-13T10:12:03.067Z,3.13
2019-05-13T10:14:32.965Z,3.50
2019-05-13T10:17:05.985Z,4.27
2019-05-13T10:19:33.279Z,3.60
2019-05-13T10:22:01.991Z,5.80
2019-05-13T10:24:32.786Z,4.67
2019-05-13T10:27:02.524Z,7.03
2019-05-13T10:29:32.115Z,3.83
2019-05-13T10:32:02.736Z,6.10
2019-05-13T10:34:32.560Z,5.03
2019-05-13T10:37:02.141Z,4.80
2019-05-13T10:39:31.237Z,4.63
2019-05-13T10:42:03.047Z,3.80
2019-05-13T10:44:29.891Z,4.63
2019-05-13T10:46:58.549Z,4.20
2019-05-13T10:49:27.027Z,7.10
2019-05-13T10:51:55.504Z,4.60
2019-05-13T10:54:23.995Z,5.70
2019-05-13T10:56:54.217Z,8.13
2019-05-13T10:59:23.177Z,2.83
2019-05-13T11:01:51.828Z,6.67
2019-05-13T11:04:22.187Z,6.03
2019-05-13T11:06:52.424Z,4.60
2019-05-13T11:09:21.844Z,5.47
2019-05-13T11:11:52.815Z,6.40
2019-05-13T11:14:21.945Z,4.70
2019-05-13T11:16:52.254Z,3.10
2019-05-13T11:19:23.177Z,6.10
2019-05-13T11:21:51.861Z,5.30
2019-05-13T11:24:22.748Z,3.30
2019-05-13T11:26:53.131Z,4.80
2019-05-13T11:29:23.007Z,2.90
2019-05-13T11:31:52.357Z,3.80
2019-05-13T11:34:22.133Z,4.37
2019-05-13T11:36:53.382Z,5.37
2019-05-13T11:39:21.865Z,5.40
2019-05-13T11:41:50.643Z,5.30
2019-05-13T11:44:19.149Z,5.03
2019-05-13T11:46:47.657Z,3.53
2019-05-13T11:49:16.203Z,2.93
2019-05-13T11:51:45.071Z,5.17
2019-05-13T11:54:14.271Z,3.93
2019-05-13T11:56:49.193Z,3.97
2019-05-13T11:59:13.970Z,3.77
2019-05-13T12:01:42.952Z,3.50
2019-05-13T12:04:11.616Z,7.30
2019-05-13T12:06:48.021Z,3.30
2019-05-13T12:09:13.083Z,2.57
2019-05-13T12:11:40.777Z,3.50
2019-05-13T12:14:34.751Z,2.90
2019-05-13T12:16:42.339Z,4.13
2019-05-13T12:19:11.847Z,4.43
2019-05-13T12:21:43.252Z,4.87
2019-05-13T12:24:11.278Z,5.40
2019-05-13T12:26:43.080Z,4.47
2019-05-13T12:29:17.897Z,5.30
2019-05-13T12:31:40.501Z,2.23
2019-05-13T12:34:12.750Z,3.93
2019-05-13T12:36:43.012Z,3.53
2019-05-13T12:39:13.967Z,3.33
2019-05-13T12:41:42.075Z,7.00
2019-05-13T12:44:12.725Z,4.30
2019-05-13T12:46:41.509Z,12.00
2019-05-13T12:49:14.164Z,9.77
2019-05-13T12:51:43.853Z,6.53
2019-05-13T12:54:13.566Z,4.20
2019-05-13T12:56:42.520Z,6.50
2019-05-13T12:59:13.335Z,3.17
2019-05-13T13:01:42.301Z,3.50
2019-05-13T13:04:12.298Z,7.67
2019-05-13T13:06:45.111Z,6.03
2019-05-13T13:09:12.818Z,6.13
2019-05-13T13:11:43.661Z,5.13
2019-05-13T13:14:15.607Z,5.50
2019-05-13T13:16:42.353Z,7.20
2019-05-13T13:19:14.659Z,6.87
2019-05-13T13:21:41.509Z,6.50
2019-05-13T13:24:12.297Z,3.17
2019-05-13T13:26:42.741Z,3.67
2019-05-13T13:29:10.401Z,8.07
2019-05-13T13:31:42.721Z,3.30
2019-05-13T13:34:13.570Z,4.23
2019-05-13T13:36:39.459Z,2.60
2019-05-13T13:39:09.072Z,2.53
2019-05-13T13:41:37.544Z,5.80
2019-05-13T13:44:06.044Z,5.93
2019-05-13T13:46:42.491Z,6.33
2019-05-13T13:49:05.924Z,2.30
2019-05-13T13:51:34.655Z,3.07
2019-05-13T13:54:03.101Z,6.30
2019-05-13T13:56:32.596Z,5.30
2019-05-13T13:59:04.343Z,4.67
2019-05-13T14:01:33.334Z,2.13
2019-05-13T14:04:03.822Z,3.90
2019-05-13T14:06:25.036Z,4.30
2019-05-13T14:06:25.465Z,5.90
2019-05-13T14:07:22.255Z,2.77
2019-05-13T14:09:02.261Z,3.60
2019-05-13T14:11:33.121Z,4.97
2019-05-13T14:14:02.168Z,5.87
2019-05-13T14:16:34.901Z,3.57
2019-05-13T14:19:01.069Z,7.20
2019-05-13T14:21:32.243Z,4.20
2019-05-13T14:24:02.430Z,3.30
2019-05-13T14:26:32.428Z,6.60
2019-05-13T14:29:02.679Z,4.47
2019-05-13T14:31:32.402Z,3.83
2019-05-13T14:34:03.388Z,5.57
2019-05-13T14:36:30.787Z,3.90
2019-05-13T14:38:59.244Z,3.33
2019-05-13T14:41:27.733Z,5.13
2019-05-13T14:43:56.206Z,2.80
2019-05-13T14:46:35.367Z,5.33
2019-05-13T14:48:54.921Z,5.00
2019-05-13T14:51:23.412Z,2.77
2019-05-13T14:53:52.167Z,6.93
2019-05-13T14:56:22.190Z,2.73
2019-05-13T14:58:52.082Z,2.20
2019-05-13T15:01:22.693Z,3.43
2019-05-13T15:03:52.142Z,5.77
2019-05-13T15:06:22.062Z,2.90
2019-05-13T15:08:52.726Z,3.87
2019-05-13T15:11:21.920Z,5.27
2019-05-13T15:13:51.817Z,2.37
2019-05-13T15:16:22.413Z,4.47
2019-05-13T15:18:52.419Z,3.10
2019-05-13T15:21:21.459Z,3.60
2019-05-13T15:23:51.816Z,2.87
2019-05-13T15:26:22.244Z,3.50
2019-05-13T15:28:51.907Z,2.37
2019-05-13T15:31:22.122Z,3.40
2019-05-13T15:33:52.452Z,2.30
2019-05-13T15:36:22.539Z,5.10
2019-05-13T15:38:52.019Z,1.77
2019-05-13T15:41:20.804Z,4.20
2019-05-13T15:43:51.244Z,5.23
2019-05-13T15:46:21.791Z,3.13
2019-05-13T15:48:51.441Z,2.43
2019-05-13T15:51:22.104Z,2.07
2019-05-13T15:53:51.731Z,3.00
2019-05-13T15:56:22.342Z,3.57
2019-05-13T15:58:53.021Z,2.27
2019-05-13T16:01:23.007Z,3.37
2019-05-13T16:03:52.528Z,3.67
2019-05-13T16:06:21.369Z,2.73
2019-05-13T16:08:51.867Z,2.47
2019-05-13T16:11:21.973Z,2.20
2019-05-13T16:13:51.855Z,2.17
2019-05-13T16:16:21.832Z,5.13
2019-05-13T16:18:51.606Z,1.63
2019-05-13T16:21:20.227Z,1.80
2019-05-13T16:23:48.691Z,2.17
2019-05-13T16:26:17.153Z,2.27
2019-05-13T16:28:45.724Z,2.27
2019-05-13T16:31:14.169Z,3.57
2019-05-13T16:33:42.665Z,2.53
2019-05-13T16:36:12.638Z,3.10
2019-05-13T16:38:41.868Z,3.23
2019-05-13T16:41:12.392Z,3.07
2019-05-13T16:43:42.636Z,3.27
2019-05-13T16:46:12.148Z,4.50
2019-05-13T16:48:41.621Z,4.97
2019-05-13T16:51:12.332Z,5.23
2019-05-13T16:53:42.245Z,9.00
2019-05-13T16:56:25.279Z,6.93
2019-05-13T16:58:41.861Z,3.43
2019-05-13T17:01:11.718Z,3.40
2019-05-13T17:03:41.508Z,2.67
2019-05-13T17:06:12.466Z,4.77
2019-05-13T17:08:42.513Z,4.37
2019-05-13T17:11:11.740Z,3.33
2019-05-13T17:13:42.125Z,3.87
2019-05-13T17:16:10.940Z,2.67
2019-05-13T17:18:41.478Z,3.70
2019-05-13T17:21:09.689Z,2.53
2019-05-13T17:23:38.176Z,2.03
2019-05-13T17:26:06.640Z,3.70
2019-05-13T17:28:35.140Z,5.93
2019-05-13T17:31:03.587Z,3.77
2019-05-13T17:33:32.159Z,4.60
2019-05-13T17:36:01.936Z,2.03
2019-05-13T17:38:32.361Z,4.12
2019-05-13T17:41:02.157Z,2.60
2019-05-13T17:43:32.003Z,1.83
2019-05-13T17:46:00.803Z,4.33
2019-05-13T17:48:32.085Z,4.73
2019-05-13T17:51:01.407Z,2.90
2019-05-13T17:53:32.263Z,2.40
2019-05-13T17:56:02.151Z,6.17
2019-05-13T17:58:31.430Z,5.07
2019-05-13T18:01:01.723Z,3.00
2019-05-13T18:03:31.986Z,3.50
2019-05-13T18:06:02.297Z,2.13
2019-05-13T18:08:32.014Z,4.57
2019-05-13T18:11:02.181Z,7.07
2019-05-13T18:13:31.482Z,2.27
2019-05-13T18:16:02.447Z,3.33
2019-05-13T18:18:40.448Z,5.10
2019-05-13T18:21:01.517Z,2.17
2019-05-13T18:23:30.193Z,3.30
2019-05-13T18:25:58.652Z,3.03
2019-05-13T18:28:31.117Z,3.40
2019-05-13T18:30:57.325Z,4.10
2019-05-13T18:33:25.790Z,3.63
2019-05-13T18:35:54.267Z,3.07
2019-05-13T18:38:22.772Z,2.90
2019-05-13T18:40:52.623Z,4.62
2019-05-13T18:43:21.666Z,6.30
2019-05-13T18:45:52.533Z,4.33
2019-05-13T18:48:21.848Z,3.73
2019-05-13T18:50:52.350Z,3.30
2019-05-13T18:53:21.467Z,5.23
2019-05-13T18:55:52.409Z,4.37
2019-05-13T18:58:22.198Z,3.93
2019-05-13T19:00:52.229Z,5.83
2019-05-13T19:03:21.786Z,5.20
2019-05-13T19:05:51.985Z,2.73
2019-05-13T19:08:21.433Z,4.83
2019-05-13T19:10:52.031Z,3.17
2019-05-13T19:13:21.802Z,2.97
2019-05-13T19:15:51.674Z,3.00
2019-05-13T19:18:21.438Z,2.93
2019-05-13T19:20:51.347Z,3.93
2019-05-13T19:23:19.936Z,5.23
2019-05-13T19:25:48.434Z,3.23
2019-05-13T19:28:16.882Z,3.30
2019-05-13T19:30:45.354Z,4.03
2019-05-13T19:33:13.818Z,4.90
2019-05-13T19:35:42.709Z,3.00
2019-05-13T19:38:12.123Z,10.80
2019-05-13T19:40:41.881Z,4.40
2019-05-13T19:43:11.556Z,2.00
2019-05-13T19:45:41.623Z,3.50
2019-05-13T19:48:11.815Z,2.60
2019-05-13T19:50:41.610Z,3.43
2019-05-13T19:53:12.039Z,3.87
2019-05-13T19:55:41.474Z,5.07
2019-05-13T19:58:12.354Z,2.20
2019-05-13T20:00:42.412Z,4.10
2019-05-13T20:03:11.736Z,4.90
2019-05-13T20:05:41.513Z,4.20
2019-05-13T20:08:10.197Z,3.97
2019-05-13T20:10:38.682Z,3.27
2019-05-13T20:13:07.151Z,4.00
2019-05-13T20:15:35.633Z,3.17
2019-05-13T20:18:04.278Z,3.63
2019-05-13T20:20:33.038Z,4.13
2019-05-13T20:23:01.999Z,4.77
2019-05-13T20:25:31.196Z,3.00
2019-05-13T20:28:02.145Z,4.10
2019-05-13T20:30:30.073Z,4.87
2019-05-13T20:32:58.549Z,3.80
2019-05-13T20:35:27.019Z,4.80
2019-05-13T20:37:55.511Z,5.93
2019-05-13T20:40:24.040Z,3.73
2019-05-13T20:42:52.524Z,3.73
2019-05-13T20:45:22.449Z,8.67
2019-05-13T20:47:51.218Z,3.97
2019-05-13T20:50:21.748Z,3.10
2019-05-13T20:52:51.605Z,2.67
2019-05-13T20:55:22.079Z,2.97
2019-05-13T20:57:53.076Z,2.87
2019-05-13T21:00:20.943Z,3.07
2019-05-13T21:02:51.525Z,3.03
2019-05-13T21:05:21.829Z,1.93
2019-05-13T21:07:51.605Z,4.10
2019-05-13T21:10:21.072Z,2.53
2019-05-13T21:12:51.434Z,2.90
2019-05-13T21:15:20.091Z,3.07
2019-05-13T21:17:48.587Z,2.90
2019-05-13T21:20:22.161Z,2.30
2019-05-13T21:22:47.495Z,7.83
2019-05-13T21:25:16.859Z,3.73
2019-05-13T21:27:45.321Z,3.60
2019-05-13T21:30:14.041Z,3.53
2019-05-13T21:32:42.606Z,6.20
2019-05-13T21:35:11.982Z,3.90
2019-05-13T21:37:40.582Z,3.20
2019-05-13T21:40:11.149Z,2.37
2019-05-13T21:42:41.886Z,2.70
2019-05-13T21:45:11.236Z,4.17
2019-05-13T21:47:39.938Z,2.50
2019-05-13T21:50:11.345Z,4.20
2019-05-13T21:52:41.692Z,3.37
2019-05-13T21:55:11.340Z,4.73
2019-05-13T21:57:41.570Z,2.80
2019-05-13T22:00:13.267Z,4.33
2019-05-13T22:02:41.745Z,3.13
2019-05-13T22:05:11.713Z,6.97
2019-05-13T22:07:42.130Z,3.80
2019-05-13T22:10:11.900Z,4.47
2019-05-13T22:12:41.459Z,4.27
2019-05-13T22:15:11.489Z,3.00
2019-05-13T22:17:42.077Z,3.50
2019-05-13T22:20:12.264Z,3.30
2019-05-13T22:22:41.534Z,2.57
2019-05-13T22:25:12.178Z,3.03
2019-05-13T22:27:41.352Z,5.60
2019-05-13T22:30:11.886Z,4.70
2019-05-13T22:32:41.778Z,5.50
2019-05-13T22:35:11.334Z,4.53
2019-05-13T22:37:39.905Z,4.73
2019-05-13T22:40:11.296Z,6.53
2019-05-13T22:42:41.559Z,3.87
2019-05-13T22:45:11.764Z,4.70
2019-05-13T22:47:41.702Z,5.90
2019-05-13T22:50:12.820Z,5.90
2019-05-13T22:52:41.833Z,3.40
2019-05-13T22:55:11.530Z,4.00
2019-05-13T22:57:41.938Z,2.30
2019-05-13T23:00:11.844Z,4.10
2019-05-13T23:02:42.147Z,3.67
2019-05-13T23:05:11.402Z,2.93
2019-05-13T23:07:40.080Z,4.70
2019-05-13T23:10:11.641Z,2.97
2019-05-13T23:12:41.891Z,4.03
2019-05-13T23:15:11.960Z,7.50
2019-05-13T23:17:41.497Z,3.83
2019-05-13T23:20:10.714Z,3.20
2019-05-13T23:22:41.308Z,5.33
2019-05-13T23:25:11.986Z,2.67
2019-05-13T23:27:41.505Z,4.73
2019-05-13T23:30:11.678Z,3.47
2019-05-13T23:32:40.292Z,2.33
2019-05-13T23:35:10.983Z,4.57
2019-05-13T23:37:41.516Z,2.37
2019-05-13T23:40:11.844Z,4.63
2019-05-13T23:42:40.464Z,3.83
2019-05-13T23:45:11.473Z,3.50
2019-05-13T23:47:41.566Z,6.77
2019-05-13T23:50:12.473Z,3.60
2019-05-13T23:52:41.855Z,3.53
2019-05-13T23:55:11.020Z,5.57
2019-05-13T23:57:41.950Z,4.37
